LSGG/GVA METAR and TAF weather

Enter ICAO airport designator
Station Type Date Time Source
LSGG METAR 2019/07/20 20:50 UTC NOAA

LSGG 202050Z 24009KT 9999 VCSH FEW070 BKN180 26/15 Q1019 NOSIG


Station Type Date Time Source
LSGG Decoded METAR 2019/07/20 20:50 UTC NOAA

Geneve-Cointrin, Switzerland (LSGG) 46-15N 006-08E 416M
Jul 20, 2019 - 04:50 PM EDT / 2019.07.20 2050 UTC
Wind: from the WSW (240 degrees) at 10 MPH (9 KT):0
Visibility: greater than 7 mile(s):0
Sky conditions: mostly cloudy
Weather: showers in the vicinity
Temperature: 78 F (26 C)
Dew Point: 59 F (15 C)
Relative Humidity: 50%
Pressure (altimeter): 30.09 in. Hg (1019 hPa)
ob: LSGG 202050Z 24009KT 9999 VCSH FEW070 BKN180 26/15 Q1019 NOSIG
cycle: 21

Station Type Date Time Source
LSGG TAF 2019/07/20 21:46 UTC NOAA

TAF LSGG 202025Z 2021/2203 22010KT CAVOK TX32/2115Z TN19/2104Z PROB40
TEMPO 2021/2102 SHRA SCT060TCU
BECMG 2106/2109 9999 FEW050 PROB30
TEMPO 2115/2118 30010KT
BECMG 2120/2122 CAVOK

Example: see airport list